Time;durP1;ratioP1;P1;durP2;ratioP2;P2;SDS_P1;SDS_P2;PMS_P1;PMS_P2;Temp;Humidity;BMP_temperature;BMP_pressure;BME280_temperature;BME280_humidity;BME280_pressure;Samples;Min_cycle;Max_cycle;Signal;HPM_P1;HPM_P2
2022/04/25 00:01:36;;;;;;;4.32;2.35;;;;;;;;;;5057908;28;20144;-87
2022/04/25 00:04:03;;;;;;;3.20;1.85;;;;;;;;;;5059166;28;20044;-88
2022/04/25 00:06:30;;;;;;;5.05;3.83;;;;;;;;;;5059188;28;20049;-88
2022/04/25 00:08:58;;;;;;;3.75;2.05;;;;;;;;;;5057806;28;20179;-88
2022/04/25 00:11:26;;;;;;;3.38;2.05;;;;;;;;;;5058947;28;20136;-88
2022/04/25 00:13:52;;;;;;;4.18;2.25;;;;;;;;;;5060089;28;20048;-88
2022/04/25 00:16:19;;;;;;;4.00;2.13;;;;;;;;;;5059306;28;20052;-88
2022/04/25 00:18:47;;;;;;;3.78;2.00;;;;;;;;;;5059497;28;20050;-88
2022/04/25 00:21:13;;;;;;;3.42;1.77;;;;;;;;;;5056787;28;20041;-88
2022/04/25 00:23:40;;;;;;;3.67;2.00;;;;;;;;;;5059581;28;20132;-87
2022/04/25 00:26:09;;;;;;;4.03;2.13;;;;;;;;;;5059033;28;20066;-87
2022/04/25 00:28:35;;;;;;;3.00;1.50;;;;;;;;;;5058830;28;20041;-88
2022/04/25 00:31:03;;;;;;;3.28;2.00;;;;;;;;;;5061626;28;20041;-88
2022/04/25 00:33:29;;;;;;;4.25;2.15;;;;;;;;;;5057199;28;20078;-87
2022/04/25 00:35:56;;;;;;;3.17;1.70;;;;;;;;;;5056704;28;21036;-88
2022/04/25 00:38:22;;;;;;;3.60;2.28;;;;;;;;;;5058516;28;20059;-88
2022/04/25 00:40:49;;;;;;;4.43;1.90;;;;;;;;;;5056705;28;20769;-88
2022/04/25 00:43:17;;;;;;;2.50;1.50;;;;;;;;;;5058462;28;20080;-89
2022/04/25 00:45:44;;;;;;;3.78;2.05;;;;;;;;;;5059797;28;20152;-88
2022/04/25 00:48:10;;;;;;;4.75;2.10;;;;;;;;;;5055866;28;20037;-88
2022/04/25 00:50:38;;;;;;;4.50;2.30;;;;;;;;;;5057431;28;20148;-89
2022/04/25 00:53:05;;;;;;;3.55;1.95;;;;;;;;;;5060175;28;20545;-88
2022/04/25 00:55:32;;;;;;;5.72;3.15;;;;;;;;;;5058547;28;20059;-89
2022/04/25 00:57:59;;;;;;;1.90;1.20;;;;;;;;;;5057523;28;20071;-88
2022/04/25 01:00:27;;;;;;;4.13;1.85;;;;;;;;;;5058772;28;20062;-88
2022/04/25 01:02:54;;;;;;;2.33;1.50;;;;;;;;;;5057699;28;20048;-88
2022/04/25 01:05:21;;;;;;;2.53;1.58;;;;;;;;;;5055725;28;20053;-88
2022/04/25 01:07:48;;;;;;;3.10;1.90;;;;;;;;;;5056539;28;20041;-88
2022/04/25 01:10:14;;;;;;;2.55;1.48;;;;;;;;;;5058084;28;20049;-89
2022/04/25 01:12:41;;;;;;;2.75;1.70;;;;;;;;;;5059584;28;20461;-88
2022/04/25 01:15:09;;;;;;;2.28;1.55;;;;;;;;;;5056084;28;20053;-88
2022/04/25 01:17:38;;;;;;;3.45;1.92;;;;;;;;;;5057862;28;20052;-88
2022/04/25 01:20:07;;;;;;;2.55;1.58;;;;;;;;;;5056193;28;20143;-88
2022/04/25 01:22:37;;;;;;;2.75;1.67;;;;;;;;;;5057246;28;20041;-88
2022/04/25 01:27:50;;;;;;;3.10;1.70;;;;;;;;;;5057633;28;20063;-88
2022/04/25 01:30:17;;;;;;;2.60;1.42;;;;;;;;;;5059479;28;20072;-88
2022/04/25 01:32:43;;;;;;;2.78;1.73;;;;;;;;;;5058660;28;20047;-88
2022/04/25 01:35:10;;;;;;;3.22;2.00;;;;;;;;;;5058026;28;20692;-88
2022/04/25 01:37:37;;;;;;;3.97;2.60;;;;;;;;;;5055420;28;20092;-88
2022/04/25 01:40:06;;;;;;;3.55;1.95;;;;;;;;;;5056432;28;20059;-88
2022/04/25 01:42:32;;;;;;;4.45;2.45;;;;;;;;;;5056644;28;20055;-88
2022/04/25 01:44:59;;;;;;;4.00;2.38;;;;;;;;;;5043702;28;20662;-88
2022/04/25 01:47:38;;;;;;;4.43;2.42;;;;;;;;;;5054457;28;20500;-88
2022/04/25 01:50:06;;;;;;;5.28;2.70;;;;;;;;;;5056100;28;20044;-88
2022/04/25 01:52:33;;;;;;;5.45;2.97;;;;;;;;;;5056911;28;20044;-88
2022/04/25 01:55:01;;;;;;;4.65;2.75;;;;;;;;;;5056382;28;20049;-88
2022/04/25 01:57:29;;;;;;;4.40;2.40;;;;;;;;;;5060547;28;20047;-88
2022/04/25 01:59:56;;;;;;;4.28;2.58;;;;;;;;;;5059231;28;20055;-88
2022/04/25 02:02:23;;;;;;;7.75;3.10;;;;;;;;;;5055210;28;20216;-88
2022/04/25 02:04:50;;;;;;;5.47;3.17;;;;;;;;;;5052951;28;20056;-88
2022/04/25 02:07:16;;;;;;;4.85;3.05;;;;;;;;;;5054994;28;20099;-88
2022/04/25 02:09:43;;;;;;;4.78;2.90;;;;;;;;;;5056927;28;20051;-89
2022/04/25 02:12:10;;;;;;;4.88;3.05;;;;;;;;;;5054393;28;20609;-88
2022/04/25 02:14:40;;;;;;;5.43;2.63;;;;;;;;;;5056957;28;20059;-88
2022/04/25 02:17:06;;;;;;;4.40;2.60;;;;;;;;;;5056245;28;20167;-88
2022/04/25 02:19:35;;;;;;;4.95;2.45;;;;;;;;;;5057006;28;20042;-88
2022/04/25 02:22:02;;;;;;;4.78;2.70;;;;;;;;;;5059020;28;20044;-88
2022/04/25 02:24:28;;;;;;;5.70;3.10;;;;;;;;;;5057627;28;20147;-88
2022/04/25 02:26:55;;;;;;;4.65;2.50;;;;;;;;;;5057160;28;20727;-88
2022/04/25 02:29:22;;;;;;;5.32;3.25;;;;;;;;;;5059084;28;20114;-88
2022/04/25 02:31:50;;;;;;;4.90;2.80;;;;;;;;;;5054162;28;20056;-88
2022/04/25 02:34:16;;;;;;;4.82;2.72;;;;;;;;;;5053564;28;20044;-88
2022/04/25 02:36:43;;;;;;;5.03;2.97;;;;;;;;;;5051622;28;20056;-88
2022/04/25 02:39:10;;;;;;;4.70;2.50;;;;;;;;;;5056038;28;20090;-88
2022/04/25 02:41:36;;;;;;;5.45;3.10;;;;;;;;;;5057725;28;20044;-88
2022/04/25 02:44:03;;;;;;;4.45;3.05;;;;;;;;;;5056708;28;20051;-88
2022/04/25 02:46:30;;;;;;;4.82;2.60;;;;;;;;;;5053954;28;20041;-88
2022/04/25 02:48:58;;;;;;;4.40;2.67;;;;;;;;;;5058167;28;20593;-88
2022/04/25 02:51:24;;;;;;;4.22;2.38;;;;;;;;;;5054516;28;20140;-88
2022/04/25 02:53:51;;;;;;;3.92;2.38;;;;;;;;;;5057967;28;20135;-88
2022/04/25 02:56:18;;;;;;;4.50;3.08;;;;;;;;;;5056109;28;20175;-88
2022/04/25 02:58:44;;;;;;;3.20;2.13;;;;;;;;;;5054799;28;20144;-88
2022/04/25 03:01:11;;;;;;;4.30;2.55;;;;;;;;;;5056439;28;20138;-88
2022/04/25 03:03:38;;;;;;;5.05;3.10;;;;;;;;;;5056177;28;20132;-88
2022/04/25 03:06:07;;;;;;;4.47;2.60;;;;;;;;;;5057039;28;20051;-88
2022/04/25 03:08:35;;;;;;;5.28;3.28;;;;;;;;;;5057437;28;20056;-88
2022/04/25 03:11:03;;;;;;;5.25;2.80;;;;;;;;;;5058739;28;20041;-88
2022/04/25 03:13:30;;;;;;;4.45;2.70;;;;;;;;;;5056331;28;20040;-88
2022/04/25 03:15:57;;;;;;;4.15;2.90;;;;;;;;;;5057245;28;20135;-88
2022/04/25 03:18:23;;;;;;;4.72;2.70;;;;;;;;;;5060186;28;20045;-88
2022/04/25 03:20:51;;;;;;;4.32;2.45;;;;;;;;;;5057601;28;20133;-88
2022/04/25 03:23:20;;;;;;;4.85;2.85;;;;;;;;;;5055196;28;20053;-88
2022/04/25 03:25:47;;;;;;;4.25;2.75;;;;;;;;;;5052901;28;20147;-88
2022/04/25 03:28:14;;;;;;;5.53;3.53;;;;;;;;;;5054441;28;20056;-88
2022/04/25 03:30:41;;;;;;;4.47;2.70;;;;;;;;;;5056136;28;20050;-88
2022/04/25 03:33:10;;;;;;;4.22;2.67;;;;;;;;;;5055833;28;20795;-88
2022/04/25 03:35:37;;;;;;;5.35;2.97;;;;;;;;;;5054028;28;20056;-88
2022/04/25 03:38:06;;;;;;;3.97;2.42;;;;;;;;;;5055104;28;20813;-88
2022/04/25 03:40:34;;;;;;;4.10;2.58;;;;;;;;;;5055615;28;20049;-88
2022/04/25 03:43:01;;;;;;;4.35;2.83;;;;;;;;;;5056519;28;20045;-88
2022/04/25 03:45:28;;;;;;;6.13;3.38;;;;;;;;;;5057221;28;20139;-88
2022/04/25 03:47:55;;;;;;;4.85;3.25;;;;;;;;;;5053721;28;20044;-88
2022/04/25 03:50:22;;;;;;;4.28;2.75;;;;;;;;;;5057388;28;20047;-88
2022/04/25 03:52:48;;;;;;;5.28;3.53;;;;;;;;;;5055903;28;20041;-88
2022/04/25 03:58:04;;;;;;;4.18;2.42;;;;;;;;;;5056100;28;20060;-88
2022/04/25 04:00:31;;;;;;;3.83;2.33;;;;;;;;;;5054781;28;20983;-88
2022/04/25 04:02:59;;;;;;;5.15;2.80;;;;;;;;;;5055542;28;20045;-88
2022/04/25 04:05:25;;;;;;;4.28;2.67;;;;;;;;;;5054823;28;20048;-88
2022/04/25 04:07:53;;;;;;;5.07;3.10;;;;;;;;;;5055580;28;20045;-88
2022/04/25 04:10:20;;;;;;;5.88;3.60;;;;;;;;;;5055330;28;20048;-88
2022/04/25 04:12:47;;;;;;;6.40;3.92;;;;;;;;;;5053780;28;20059;-87
2022/04/25 04:15:16;;;;;;;4.38;3.10;;;;;;;;;;5054623;28;20048;-88
2022/04/25 04:17:42;;;;;;;7.05;4.20;;;;;;;;;;5056146;28;20049;-87
2022/04/25 04:20:11;;;;;;;5.82;4.05;;;;;;;;;;5056946;28;20696;-88
2022/04/25 04:22:38;;;;;;;7.10;4.35;;;;;;;;;;5056590;28;20060;-87
2022/04/25 04:25:06;;;;;;;6.50;4.13;;;;;;;;;;5060569;28;20190;-87
2022/04/25 04:27:33;;;;;;;7.75;5.25;;;;;;;;;;5060479;28;20043;-88
2022/04/25 04:30:00;;;;;;;7.70;4.32;;;;;;;;;;5058838;28;20084;-88
2022/04/25 04:32:29;;;;;;;7.82;4.95;;;;;;;;;;5060797;28;20081;-87
2022/04/25 04:34:56;;;;;;;11.55;5.20;;;;;;;;;;5060484;28;20047;-87
2022/04/25 04:37:23;;;;;;;8.45;5.22;;;;;;;;;;5056201;28;20053;-87
2022/04/25 04:39:49;;;;;;;8.43;5.55;;;;;;;;;;5059422;28;20045;-87
2022/04/25 04:42:16;;;;;;;7.07;5.25;;;;;;;;;;5059759;28;20056;-87
2022/04/25 04:44:43;;;;;;;10.05;6.40;;;;;;;;;;5059390;28;20044;-87
2022/04/25 04:47:15;;;;;;;9.13;5.10;;;;;;;;;;5058214;28;20037;-87
2022/04/25 04:49:43;;;;;;;12.50;6.25;;;;;;;;;;5055421;28;20075;-87
2022/04/25 04:52:10;;;;;;;11.75;6.15;;;;;;;;;;5056562;28;20067;-86
2022/04/25 04:54:36;;;;;;;10.88;6.78;;;;;;;;;;5056712;28;20055;-86
2022/04/25 04:57:03;;;;;;;10.40;6.13;;;;;;;;;;5058893;28;20136;-86
2022/04/25 04:59:29;;;;;;;9.88;6.57;;;;;;;;;;5060000;28;20059;-86
2022/04/25 05:01:56;;;;;;;12.05;6.90;;;;;;;;;;5057224;28;20048;-86
2022/04/25 05:04:24;;;;;;;10.05;6.43;;;;;;;;;;5057245;28;20072;-86
2022/04/25 05:06:52;;;;;;;11.55;6.43;;;;;;;;;;5059947;28;20056;-86
2022/04/25 05:09:20;;;;;;;10.02;6.72;;;;;;;;;;5058203;28;20421;-86
2022/04/25 05:11:47;;;;;;;11.13;6.55;;;;;;;;;;5058866;28;20127;-86
2022/04/25 05:14:14;;;;;;;9.77;6.68;;;;;;;;;;5060309;28;20148;-86
2022/04/25 05:16:41;;;;;;;11.57;7.10;;;;;;;;;;5059733;28;20499;-87
2022/04/25 05:19:07;;;;;;;11.48;7.47;;;;;;;;;;5058355;28;20084;-86
2022/04/25 05:21:34;;;;;;;12.18;8.25;;;;;;;;;;5058381;28;20044;-86
2022/04/25 05:24:02;;;;;;;11.50;8.07;;;;;;;;;;5060101;28;20143;-86
2022/04/25 05:26:28;;;;;;;12.15;8.35;;;;;;;;;;5061633;28;20136;-86
2022/04/25 05:28:57;;;;;;;11.90;7.72;;;;;;;;;;5060626;28;20048;-86
2022/04/25 05:31:24;;;;;;;10.85;7.00;;;;;;;;;;5058977;28;20045;-86
2022/04/25 05:33:50;;;;;;;11.02;7.40;;;;;;;;;;5058552;28;20052;-86
2022/04/25 05:36:17;;;;;;;12.32;7.15;;;;;;;;;;5057017;28;20045;-85
2022/04/25 05:38:43;;;;;;;10.88;6.47;;;;;;;;;;5059173;28;20045;-86
2022/04/25 05:41:11;;;;;;;9.63;6.97;;;;;;;;;;5058386;28;20476;-86
2022/04/25 05:43:38;;;;;;;10.13;6.68;;;;;;;;;;5056038;28;20053;-86
2022/04/25 05:46:07;;;;;;;11.63;6.93;;;;;;;;;;5054956;28;20049;-86
2022/04/25 05:54:03;;;;;;;12.00;7.78;;;;;;;;;;5062099;28;20064;-86
2022/04/25 05:56:31;;;;;;;15.90;7.78;;;;;;;;;;5057821;28;20040;-86
2022/04/25 05:58:58;;;;;;;10.60;7.07;;;;;;;;;;5057968;28;20045;-86
2022/04/25 06:01:25;;;;;;;12.82;7.82;;;;;;;;;;5060948;28;20102;-86
2022/04/25 06:03:51;;;;;;;11.75;7.07;;;;;;;;;;5060726;28;20483;-86
2022/04/25 06:06:20;;;;;;;12.27;7.93;;;;;;;;;;5058405;28;21364;-86
2022/04/25 06:08:47;;;;;;;13.10;8.48;;;;;;;;;;5063102;28;20049;-87
2022/04/25 06:11:14;;;;;;;12.88;8.48;;;;;;;;;;5062284;28;20040;-86
2022/04/25 06:13:44;;;;;;;12.27;7.65;;;;;;;;;;5061673;28;20049;-86
2022/04/25 06:16:16;;;;;;;12.52;8.30;;;;;;;;;;5058944;28;20122;-86
2022/04/25 06:18:43;;;;;;;12.27;8.40;;;;;;;;;;5057441;28;20501;-86
2022/04/25 06:21:10;;;;;;;12.57;8.80;;;;;;;;;;5060293;28;20136;-86
2022/04/25 06:23:36;;;;;;;13.02;8.68;;;;;;;;;;5061764;28;20058;-86
2022/04/25 06:26:03;;;;;;;12.45;8.93;;;;;;;;;;5061467;28;20257;-86
2022/04/25 06:28:30;;;;;;;13.35;8.48;;;;;;;;;;5060167;28;20052;-86
2022/04/25 06:30:58;;;;;;;13.88;8.93;;;;;;;;;;5060545;28;20071;-86
2022/04/25 06:33:25;;;;;;;15.93;9.90;;;;;;;;;;5060443;28;20072;-86
2022/04/25 06:35:51;;;;;;;13.63;9.10;;;;;;;;;;5059557;28;20052;-86
2022/04/25 06:38:19;;;;;;;15.32;9.77;;;;;;;;;;5060830;28;21508;-86
2022/04/25 06:40:46;;;;;;;13.95;8.88;;;;;;;;;;5061059;28;20040;-86
2022/04/25 06:43:13;;;;;;;14.05;9.52;;;;;;;;;;5063068;28;20127;-87
2022/04/25 06:45:40;;;;;;;16.73;10.55;;;;;;;;;;5061624;28;20052;-86
2022/04/25 06:48:09;;;;;;;16.52;10.68;;;;;;;;;;5060295;28;20052;-87
2022/04/25 06:50:35;;;;;;;15.45;10.55;;;;;;;;;;5059931;28;20061;-86
2022/04/25 06:53:03;;;;;;;18.15;12.18;;;;;;;;;;5058665;28;20040;-86
2022/04/25 06:55:29;;;;;;;16.60;11.15;;;;;;;;;;5061496;28;20123;-87
2022/04/25 06:57:56;;;;;;;16.73;11.18;;;;;;;;;;5060677;28;20140;-87
2022/04/25 07:00:24;;;;;;;16.83;10.75;;;;;;;;;;5059504;28;20049;-87
2022/04/25 07:02:51;;;;;;;15.55;9.45;;;;;;;;;;5061396;28;20048;-87
2022/04/25 07:05:19;;;;;;;16.08;11.05;;;;;;;;;;5058506;28;20107;-87
2022/04/25 07:07:46;;;;;;;16.27;11.65;;;;;;;;;;5062389;28;20048;-86
2022/04/25 07:10:12;;;;;;;17.27;10.73;;;;;;;;;;5058999;28;20149;-87
2022/04/25 07:12:39;;;;;;;18.13;11.45;;;;;;;;;;5057029;28;20040;-86
2022/04/25 07:15:07;;;;;;;18.00;12.13;;;;;;;;;;5058889;28;20055;-85
2022/04/25 07:17:33;;;;;;;16.80;11.35;;;;;;;;;;5059165;28;20044;-87
2022/04/25 07:20:00;;;;;;;18.77;12.50;;;;;;;;;;5060854;28;20048;-87
2022/04/25 07:30:40;;;;;;;19.27;13.27;;;;;;;;;;5057306;28;20152;-87
2022/04/25 07:33:07;;;;;;;19.52;12.48;;;;;;;;;;5061683;28;20044;-87
2022/04/25 07:35:34;;;;;;;19.13;12.95;;;;;;;;;;5062015;28;20157;-87
2022/04/25 07:38:02;;;;;;;17.92;12.65;;;;;;;;;;5057130;28;20041;-87
2022/04/25 07:40:29;;;;;;;17.88;12.30;;;;;;;;;;5059802;28;20101;-87
2022/04/25 07:42:56;;;;;;;19.50;13.70;;;;;;;;;;5060180;28;20059;-87
2022/04/25 07:45:22;;;;;;;20.45;13.68;;;;;;;;;;5061565;28;20064;-87
2022/04/25 07:47:49;;;;;;;20.40;13.90;;;;;;;;;;5060358;28;20132;-87
2022/04/25 07:50:22;;;;;;;19.70;12.90;;;;;;;;;;5057932;28;20072;-87
2022/04/25 07:52:49;;;;;;;18.48;12.38;;;;;;;;;;5060188;28;20052;-87
2022/04/25 07:55:17;;;;;;;19.73;14.07;;;;;;;;;;5065656;28;20051;-88
2022/04/25 07:57:45;;;;;;;20.33;14.10;;;;;;;;;;5059727;28;20060;-87
2022/04/25 08:00:12;;;;;;;18.20;12.18;;;;;;;;;;5065622;28;20098;-88
2022/04/25 08:02:39;;;;;;;18.65;12.88;;;;;;;;;;5062641;28;20050;-87
2022/04/25 08:05:06;;;;;;;19.83;14.48;;;;;;;;;;5063521;28;20051;-87
2022/04/25 08:07:32;;;;;;;18.85;13.20;;;;;;;;;;5061820;28;20048;-87
2022/04/25 08:09:59;;;;;;;20.05;12.38;;;;;;;;;;5062107;28;20408;-87
2022/04/25 08:17:59;;;;;;;19.92;13.50;;;;;;;;;;5063148;28;20060;-88
2022/04/25 08:20:28;;;;;;;20.00;14.20;;;;;;;;;;5059816;28;20076;-88
2022/04/25 08:22:55;;;;;;;18.85;13.25;;;;;;;;;;5062922;28;20063;-88
2022/04/25 08:25:21;;;;;;;19.20;12.20;;;;;;;;;;5061009;28;20036;-88
2022/04/25 08:27:49;;;;;;;16.85;12.27;;;;;;;;;;5061371;28;20121;-87
2022/04/25 08:30:17;;;;;;;18.58;12.90;;;;;;;;;;5062532;28;20439;-88
2022/04/25 08:32:44;;;;;;;19.05;13.13;;;;;;;;;;5063236;28;20056;-88
2022/04/25 08:35:10;;;;;;;18.10;12.98;;;;;;;;;;5061592;28;20151;-88
2022/04/25 08:37:37;;;;;;;19.20;13.45;;;;;;;;;;5063610;28;20110;-88
2022/04/25 08:40:04;;;;;;;19.85;13.25;;;;;;;;;;5062244;28;20367;-89
2022/04/25 08:42:31;;;;;;;18.77;13.00;;;;;;;;;;5064153;28;20040;-88
2022/04/25 08:45:02;;;;;;;16.73;12.88;;;;;;;;;;5062857;28;20059;-89
2022/04/25 08:47:37;;;;;;;18.42;13.45;;;;;;;;;;5063587;28;20045;-89
2022/04/25 08:50:05;;;;;;;17.50;12.75;;;;;;;;;;5063390;28;20048;-88
2022/04/25 08:52:32;;;;;;;19.83;12.82;;;;;;;;;;5061503;28;20056;-88
2022/04/25 08:55:00;;;;;;;16.98;12.43;;;;;;;;;;5063848;28;20071;-89
2022/04/25 08:57:27;;;;;;;20.65;14.18;;;;;;;;;;5058017;28;20057;-88
2022/04/25 08:59:55;;;;;;;19.15;14.32;;;;;;;;;;5060559;28;20116;-88
2022/04/25 09:02:23;;;;;;;17.63;13.38;;;;;;;;;;5061807;28;20053;-88
2022/04/25 09:04:50;;;;;;;19.95;13.05;;;;;;;;;;5059765;28;20131;-88
2022/04/25 09:07:17;;;;;;;18.65;13.80;;;;;;;;;;5063837;28;20467;-89
2022/04/25 09:09:44;;;;;;;18.45;13.50;;;;;;;;;;5062177;28;20123;-89
2022/04/25 09:12:13;;;;;;;22.00;15.02;;;;;;;;;;5059018;28;20068;-88
2022/04/25 09:14:41;;;;;;;17.25;12.48;;;;;;;;;;5059754;28;20123;-89
2022/04/25 09:17:08;;;;;;;19.17;12.80;;;;;;;;;;5059936;28;20037;-88
2022/04/25 09:19:37;;;;;;;22.75;13.07;;;;;;;;;;5059862;28;20055;-88
2022/04/25 09:22:05;;;;;;;17.23;13.10;;;;;;;;;;5061604;28;20037;-88
2022/04/25 09:24:33;;;;;;;17.35;13.50;;;;;;;;;;5064191;28;20427;-88
2022/04/25 09:27:12;;;;;;;18.25;13.15;;;;;;;;;;5061306;28;20083;-88
2022/04/25 09:29:40;;;;;;;17.45;12.10;;;;;;;;;;5060790;28;20040;-89
2022/04/25 09:32:09;;;;;;;17.20;12.80;;;;;;;;;;5061988;28;20063;-88
2022/04/25 09:37:45;;;;;;;17.20;11.80;;;;;;;;;;5061878;28;20063;-89
2022/04/25 09:40:15;;;;;;;15.55;11.82;;;;;;;;;;5062322;28;20736;-89
2022/04/25 09:42:41;;;;;;;13.85;11.15;;;;;;;;;;5060528;28;20152;-89
2022/04/25 09:45:08;;;;;;;14.48;11.35;;;;;;;;;;5058710;28;20553;-88
2022/04/25 09:47:38;;;;;;;14.73;11.45;;;;;;;;;;5061524;28;20058;-88
2022/04/25 09:50:08;;;;;;;13.10;10.25;;;;;;;;;;5060093;28;20274;-88
2022/04/25 09:52:36;;;;;;;14.95;10.98;;;;;;;;;;5060455;28;20676;-88
2022/04/25 09:55:11;;;;;;;14.88;11.00;;;;;;;;;;5060777;28;20052;-88
2022/04/25 09:57:38;;;;;;;14.27;10.73;;;;;;;;;;5061649;28;20041;-88
2022/04/25 10:00:06;;;;;;;14.88;10.95;;;;;;;;;;5061420;28;20056;-89
2022/04/25 10:02:33;;;;;;;15.23;11.25;;;;;;;;;;5058823;28;20063;-88
2022/04/25 10:05:13;;;;;;;14.30;10.23;;;;;;;;;;5059566;28;20040;-88
2022/04/25 10:07:40;;;;;;;13.55;10.32;;;;;;;;;;5061174;28;20048;-89
2022/04/25 10:10:07;;;;;;;13.82;9.32;;;;;;;;;;5060854;28;20056;-89
2022/04/25 10:12:35;;;;;;;13.38;10.57;;;;;;;;;;5062729;28;20076;-89
2022/04/25 10:15:02;;;;;;;13.95;10.38;;;;;;;;;;5057212;28;20067;-89
2022/04/25 10:17:38;;;;;;;12.95;9.57;;;;;;;;;;5059870;28;20087;-89
2022/04/25 10:20:06;;;;;;;12.55;9.93;;;;;;;;;;5059473;28;20079;-90
2022/04/25 10:22:34;;;;;;;13.05;9.40;;;;;;;;;;5061888;28;20052;-89
2022/04/25 10:25:01;;;;;;;12.18;9.18;;;;;;;;;;5061273;28;20596;-90
2022/04/25 10:27:30;;;;;;;12.02;9.15;;;;;;;;;;5061800;28;20045;-90
2022/04/25 10:29:58;;;;;;;10.55;7.80;;;;;;;;;;5060421;28;20052;-89
2022/04/25 10:32:26;;;;;;;11.10;8.35;;;;;;;;;;5059966;28;20055;-90
2022/04/25 10:34:59;;;;;;;10.35;8.60;;;;;;;;;;5061257;28;20045;-90
2022/04/25 10:37:34;;;;;;;9.38;7.45;;;;;;;;;;5058893;28;20049;-90
2022/04/25 10:40:02;;;;;;;10.07;8.20;;;;;;;;;;5058601;28;20043;-89
2022/04/25 10:45:13;;;;;;;10.05;8.10;;;;;;;;;;5056851;28;20110;-90
2022/04/25 10:47:58;;;;;;;10.57;8.30;;;;;;;;;;5055816;28;20079;-89
2022/04/25 10:50:25;;;;;;;11.45;9.07;;;;;;;;;;5060245;28;20049;-89
2022/04/25 10:52:55;;;;;;;11.38;8.45;;;;;;;;;;5059962;28;20044;-89
2022/04/25 10:55:42;;;;;;;10.50;7.47;;;;;;;;;;5058390;28;20497;-89
2022/04/25 10:58:14;;;;;;;8.75;7.28;;;;;;;;;;5057699;28;20087;-90
2022/04/25 11:00:46;;;;;;;9.63;7.85;;;;;;;;;;5057778;28;20048;-90
2022/04/25 11:03:14;;;;;;;9.35;7.57;;;;;;;;;;5056985;28;20435;-90
2022/04/25 11:05:42;;;;;;;9.63;7.28;;;;;;;;;;5060961;28;20048;-90
2022/04/25 11:08:31;;;;;;;9.40;7.63;;;;;;;;;;5059429;28;20068;-89
2022/04/25 11:11:20;;;;;;;8.85;7.80;;;;;;;;;;5055562;28;20187;-89
2022/04/25 11:14:12;;;;;;;9.70;7.28;;;;;;;;;;5054489;28;20052;-89
2022/04/25 11:17:11;;;;;;;8.73;6.75;;;;;;;;;;5054859;28;20522;-90
2022/04/25 11:19:50;;;;;;;7.88;6.30;;;;;;;;;;5058281;28;20058;-89
2022/04/25 11:22:49;;;;;;;8.27;7.15;;;;;;;;;;5058978;28;20044;-90
2022/04/25 11:25:42;;;;;;;9.35;7.60;;;;;;;;;;5056031;28;20134;-90
2022/04/25 11:28:11;;;;;;;8.60;7.28;;;;;;;;;;5061150;28;20477;-90
2022/04/25 11:30:39;;;;;;;8.50;7.22;;;;;;;;;;5060695;28;20049;-90
2022/04/25 11:33:06;;;;;;;7.70;6.40;;;;;;;;;;5059779;28;20052;-89
2022/04/25 11:35:34;;;;;;;9.02;6.57;;;;;;;;;;5064187;28;20136;-90
2022/04/25 11:38:01;;;;;;;7.65;5.90;;;;;;;;;;5062797;28;20040;-90
2022/04/25 11:40:28;;;;;;;6.80;6.10;;;;;;;;;;5063377;28;20045;-90
2022/04/25 11:42:59;;;;;;;7.20;6.40;;;;;;;;;;5060569;28;20049;-90
2022/04/25 11:45:26;;;;;;;10.25;7.10;;;;;;;;;;5058617;28;20629;-90
2022/04/25 11:48:00;;;;;;;7.28;6.03;;;;;;;;;;5064575;28;20152;-90
2022/04/25 11:50:28;;;;;;;6.60;5.60;;;;;;;;;;5062378;28;20060;-89
2022/04/25 11:52:55;;;;;;;6.93;5.50;;;;;;;;;;5062441;28;20072;-89
2022/04/25 11:55:32;;;;;;;7.20;5.95;;;;;;;;;;5062106;28;20055;-90
2022/04/25 11:58:01;;;;;;;7.72;5.70;;;;;;;;;;5065294;28;20428;-90
2022/04/25 12:00:28;;;;;;;6.97;5.85;;;;;;;;;;5060235;28;20051;-90
2022/04/25 12:02:55;;;;;;;7.95;6.13;;;;;;;;;;5063532;28;20131;-90
2022/04/25 12:05:31;;;;;;;8.35;5.63;;;;;;;;;;5062745;28;20052;-90
2022/04/25 12:16:19;;;;;;;8.32;6.28;;;;;;;;;;5063578;28;20157;-89
2022/04/25 12:18:51;;;;;;;7.10;5.85;;;;;;;;;;5062089;28;20045;-89
2022/04/25 12:21:19;;;;;;;9.20;6.03;;;;;;;;;;5061987;28;20048;-89
2022/04/25 12:23:50;;;;;;;6.05;5.32;;;;;;;;;;5065626;28;20059;-89
2022/04/25 12:26:18;;;;;;;7.72;6.40;;;;;;;;;;5062079;28;20052;-89
2022/04/25 12:28:52;;;;;;;7.80;6.55;;;;;;;;;;5061901;28;20135;-89
2022/04/25 12:31:20;;;;;;;7.35;6.43;;;;;;;;;;5062001;28;20144;-89
2022/04/25 12:33:55;;;;;;;8.60;6.95;;;;;;;;;;5061951;28;20653;-89
2022/04/25 12:36:23;;;;;;;6.78;6.07;;;;;;;;;;5049179;28;21287;-89
2022/04/25 12:38:54;;;;;;;6.30;5.45;;;;;;;;;;5060864;28;20110;-89
2022/04/25 12:41:23;;;;;;;8.18;5.70;;;;;;;;;;5062011;28;20080;-89
2022/04/25 12:43:53;;;;;;;7.60;6.13;;;;;;;;;;5062644;28;20079;-90
2022/04/25 12:46:35;;;;;;;6.28;5.35;;;;;;;;;;5063168;28;20053;-90
2022/04/25 12:49:04;;;;;;;7.20;5.40;;;;;;;;;;5074687;28;20112;-90
2022/04/25 12:51:34;;;;;;;6.50;5.78;;;;;;;;;;5068148;28;20144;-89
2022/04/25 12:54:00;;;;;;;8.48;5.95;;;;;;;;;;5062525;28;20044;-89
2022/04/25 12:56:29;;;;;;;6.65;5.35;;;;;;;;;;5063548;28;20135;-89
2022/04/25 12:58:57;;;;;;;7.57;5.35;;;;;;;;;;5063541;28;20075;-89
2022/04/25 13:01:35;;;;;;;7.63;6.43;;;;;;;;;;5060932;28;20530;-90
2022/04/25 13:04:11;;;;;;;7.15;5.70;;;;;;;;;;5059865;28;20044;-90
2022/04/25 13:06:39;;;;;;;6.95;5.70;;;;;;;;;;5068116;28;20037;-90
2022/04/25 13:09:09;;;;;;;7.20;6.05;;;;;;;;;;5065679;28;20044;-89
2022/04/25 13:11:38;;;;;;;5.93;5.28;;;;;;;;;;5062796;28;20062;-88
2022/04/25 13:14:06;;;;;;;6.90;5.70;;;;;;;;;;5063670;28;20072;-89
2022/04/25 13:16:32;;;;;;;6.90;6.13;;;;;;;;;;5062053;28;20052;-89
2022/04/25 13:18:59;;;;;;;7.70;5.60;;;;;;;;;;5060670;28;20047;-89
2022/04/25 13:21:26;;;;;;;7.03;5.75;;;;;;;;;;5060679;28;20052;-88
2022/04/25 13:23:53;;;;;;;9.27;6.28;;;;;;;;;;5062206;28;20050;-89
2022/04/25 13:26:21;;;;;;;7.80;6.32;;;;;;;;;;5059866;28;20140;-88
2022/04/25 13:28:49;;;;;;;7.88;5.57;;;;;;;;;;5060655;28;20114;-90
2022/04/25 13:31:17;;;;;;;8.75;5.72;;;;;;;;;;5061033;28;20053;-88
2022/04/25 13:33:44;;;;;;;7.35;6.05;;;;;;;;;;5066601;28;20131;-89
2022/04/25 13:36:11;;;;;;;6.72;5.55;;;;;;;;;;5066210;28;20467;-89
2022/04/25 13:38:37;;;;;;;8.40;5.95;;;;;;;;;;5056815;28;20055;-89
2022/04/25 13:41:04;;;;;;;6.20;5.40;;;;;;;;;;5061183;28;20052;-88
2022/04/25 13:43:32;;;;;;;7.22;6.53;;;;;;;;;;5060222;28;20051;-89
2022/04/25 13:45:59;;;;;;;8.85;6.65;;;;;;;;;;5058359;28;20348;-89
2022/04/25 13:48:30;;;;;;;8.07;6.15;;;;;;;;;;5062854;28;20055;-88
2022/04/25 13:50:56;;;;;;;7.72;5.75;;;;;;;;;;5060572;28;20052;-89
2022/04/25 13:53:23;;;;;;;8.73;6.25;;;;;;;;;;5062810;28;20135;-89
2022/04/25 13:55:50;;;;;;;8.20;6.65;;;;;;;;;;5063081;28;20446;-89
2022/04/25 13:58:17;;;;;;;7.75;6.65;;;;;;;;;;5062530;28;20068;-89
2022/04/25 14:00:47;;;;;;;9.40;7.15;;;;;;;;;;5062075;28;20051;-88
2022/04/25 14:03:13;;;;;;;10.30;8.38;;;;;;;;;;5059469;28;20110;-88
2022/04/25 14:05:44;;;;;;;8.75;6.97;;;;;;;;;;5061165;28;20048;-89
2022/04/25 14:08:11;;;;;;;7.55;6.40;;;;;;;;;;5062998;28;20056;-89
2022/04/25 14:10:41;;;;;;;8.60;6.65;;;;;;;;;;5059132;28;20063;-89
2022/04/25 14:13:11;;;;;;;12.13;8.05;;;;;;;;;;5061141;28;20063;-87
2022/04/25 14:15:38;;;;;;;9.15;7.18;;;;;;;;;;5057429;28;20041;-88
2022/04/25 14:18:07;;;;;;;10.02;7.28;;;;;;;;;;5055671;28;20594;-88
2022/04/25 14:20:34;;;;;;;8.63;5.75;;;;;;;;;;5058791;28;20076;-87
2022/04/25 14:23:02;;;;;;;5.72;4.43;;;;;;;;;;5058270;28;20443;-87
2022/04/25 14:25:29;;;;;;;6.90;4.25;;;;;;;;;;5060050;28;20040;-87
2022/04/25 14:27:57;;;;;;;6.28;4.50;;;;;;;;;;5057143;28;20135;-87
2022/04/25 14:30:27;;;;;;;6.32;4.47;;;;;;;;;;5055968;28;20048;-87
2022/04/25 14:32:56;;;;;;;6.55;4.50;;;;;;;;;;5062800;28;20082;-87
2022/04/25 14:35:23;;;;;;;6.07;4.47;;;;;;;;;;5062846;28;20100;-87
2022/04/25 14:37:50;;;;;;;6.40;4.72;;;;;;;;;;5058289;28;20703;-87
2022/04/25 14:40:19;;;;;;;6.80;4.70;;;;;;;;;;5060314;28;20072;-87
2022/04/25 14:42:46;;;;;;;6.65;4.95;;;;;;;;;;5057384;28;20072;-87
2022/04/25 14:45:13;;;;;;;8.30;5.03;;;;;;;;;;5061506;28;20129;-87
2022/04/25 14:47:41;;;;;;;9.52;5.10;;;;;;;;;;5060457;28;20047;-87
2022/04/25 14:55:38;;;;;;;9.10;5.57;;;;;;;;;;5059517;28;20132;-87
2022/04/25 14:58:05;;;;;;;7.10;5.25;;;;;;;;;;5058892;28;20055;-87
2022/04/25 15:00:32;;;;;;;8.40;5.05;;;;;;;;;;5060698;28;20574;-87
2022/04/25 15:02:59;;;;;;;9.13;5.13;;;;;;;;;;5059323;28;20048;-87
2022/04/25 15:05:25;;;;;;;7.68;5.45;;;;;;;;;;5061919;28;20059;-87
2022/04/25 15:07:52;;;;;;;8.27;5.35;;;;;;;;;;5063247;28;20442;-87
2022/04/25 15:10:19;;;;;;;7.13;5.30;;;;;;;;;;5059403;28;20086;-87
2022/04/25 15:12:47;;;;;;;7.00;4.53;;;;;;;;;;5055563;28;20633;-87
2022/04/25 15:15:14;;;;;;;7.10;5.20;;;;;;;;;;5056258;28;20882;-87
2022/04/25 15:17:42;;;;;;;7.80;5.10;;;;;;;;;;5054887;28;20139;-85
2022/04/25 15:20:09;;;;;;;7.30;4.78;;;;;;;;;;5059145;28;20206;-86
2022/04/25 15:22:36;;;;;;;7.43;5.03;;;;;;;;;;5057868;28;20052;-86
2022/04/25 15:25:03;;;;;;;7.00;5.07;;;;;;;;;;5057774;28;20042;-86
2022/04/25 15:27:30;;;;;;;6.72;4.43;;;;;;;;;;5058872;28;20565;-86